createdAt,value
2022-08-03T00:00:33.736Z,19.54
2022-08-03T00:03:03.198Z,19.51
2022-08-03T00:05:33.068Z,19.50
2022-08-03T00:08:01.352Z,19.48
2022-08-03T00:10:29.760Z,19.46
2022-08-03T00:12:57.639Z,19.42
2022-08-03T00:15:25.857Z,19.41
2022-08-03T00:17:54.172Z,19.40
2022-08-03T00:20:23.656Z,19.37
2022-08-03T00:22:51.824Z,19.33
2022-08-03T00:25:19.732Z,19.30
2022-08-03T00:27:48.482Z,19.30
2022-08-03T00:30:18.780Z,19.25
2022-08-03T00:32:47.712Z,19.26
2022-08-03T00:35:36.496Z,19.26
2022-08-03T00:38:05.607Z,19.24
2022-08-03T00:40:33.768Z,19.21
2022-08-03T00:43:02.387Z,19.17
2022-08-03T00:45:32.279Z,19.14
2022-08-03T00:48:00.563Z,19.09
2022-08-03T00:50:30.821Z,19.09
2022-08-03T00:53:00.894Z,19.06
2022-08-03T00:55:30.269Z,19.02
2022-08-03T00:57:59.625Z,18.99
2022-08-03T01:00:29.016Z,18.95
2022-08-03T01:02:56.902Z,18.93
2022-08-03T01:05:25.219Z,18.88
2022-08-03T01:08:04.550Z,18.82
2022-08-03T01:10:41.135Z,18.83
2022-08-03T01:14:01.661Z,18.80
2022-08-03T01:16:17.021Z,18.73
2022-08-03T01:19:03.566Z,18.68
2022-08-03T01:21:35.466Z,18.67
2022-08-03T01:24:31.708Z,18.60
2022-08-03T01:27:10.324Z,18.59
2022-08-03T01:29:58.254Z,18.58
2022-08-03T01:32:58.714Z,18.60
2022-08-03T01:35:27.037Z,18.62
2022-08-03T01:37:58.966Z,18.60
2022-08-03T01:40:29.433Z,18.59
2022-08-03T01:43:00.732Z,18.58
2022-08-03T01:45:34.221Z,18.57
2022-08-03T01:48:04.155Z,18.56
2022-08-03T01:50:34.351Z,18.55
2022-08-03T01:53:03.576Z,18.53
2022-08-03T01:55:34.298Z,18.54
2022-08-03T01:58:05.351Z,18.50
2022-08-03T02:00:38.321Z,18.47
2022-08-03T02:03:08.026Z,18.45
2022-08-03T02:05:37.554Z,18.44
2022-08-03T02:08:09.019Z,18.42
2022-08-03T02:10:38.668Z,18.41
2022-08-03T02:13:09.834Z,18.43
2022-08-03T02:15:40.215Z,18.44
2022-08-03T02:18:11.024Z,18.46
2022-08-03T02:20:40.324Z,18.44
2022-08-03T02:23:08.833Z,18.47
2022-08-03T02:25:42.829Z,18.50
2022-08-03T02:28:14.796Z,18.51
2022-08-03T02:30:53.787Z,18.51
2022-08-03T02:33:28.223Z,18.49
2022-08-03T02:35:57.812Z,18.45
2022-08-03T02:38:32.249Z,18.43
2022-08-03T02:41:02.653Z,18.39
2022-08-03T02:43:41.276Z,18.37
2022-08-03T02:46:26.745Z,18.33
2022-08-03T02:48:56.989Z,18.31
2022-08-03T02:51:25.757Z,18.28
2022-08-03T02:53:55.509Z,18.23
2022-08-03T02:56:25.396Z,18.21
2022-08-03T02:58:54.492Z,18.17
2022-08-03T03:01:25.659Z,18.17
2022-08-03T03:03:56.463Z,18.13
2022-08-03T03:06:26.774Z,18.12
2022-08-03T03:08:59.918Z,18.07
2022-08-03T03:11:29.074Z,18.02
2022-08-03T03:13:58.425Z,18.09
2022-08-03T03:16:30.983Z,18.11
2022-08-03T03:19:00.121Z,18.13
2022-08-03T03:21:28.860Z,18.10
2022-08-03T03:23:57.429Z,18.08
2022-08-03T03:26:25.315Z,18.09
2022-08-03T03:28:53.541Z,18.05
2022-08-03T03:31:21.321Z,18.02
2022-08-03T03:33:51.027Z,17.99
2022-08-03T03:36:19.574Z,17.97
2022-08-03T03:38:47.661Z,17.91
2022-08-03T03:41:15.653Z,17.92
2022-08-03T03:43:44.149Z,17.86
2022-08-03T03:46:13.910Z,17.84
2022-08-03T03:48:42.073Z,17.80
2022-08-03T03:51:11.803Z,17.76
2022-08-03T03:53:39.802Z,17.75
2022-08-03T03:56:07.877Z,17.75
2022-08-03T03:58:35.706Z,17.73
2022-08-03T04:01:03.652Z,17.76
2022-08-03T04:03:31.848Z,17.74
2022-08-03T04:06:17.791Z,17.75
2022-08-03T04:09:05.213Z,17.76
2022-08-03T04:11:38.767Z,17.76
2022-08-03T04:15:58.744Z,17.80
2022-08-03T04:18:29.730Z,17.81
2022-08-03T04:21:03.949Z,17.81
2022-08-03T04:23:35.311Z,17.81
2022-08-03T04:26:04.389Z,17.82
2022-08-03T04:29:32.338Z,17.82
2022-08-03T04:32:03.181Z,17.84
2022-08-03T04:34:31.838Z,17.83
2022-08-03T04:37:01.959Z,17.84
2022-08-03T04:39:32.963Z,17.88
2022-08-03T04:42:08.111Z,17.93
2022-08-03T04:44:47.927Z,17.93
2022-08-03T04:47:16.537Z,17.97
2022-08-03T04:49:45.149Z,17.99
2022-08-03T04:52:13.490Z,17.98
2022-08-03T04:54:42.514Z,17.99
2022-08-03T04:57:23.231Z,18.05
2022-08-03T05:00:02.663Z,18.10
2022-08-03T05:02:32.220Z,18.14
2022-08-03T05:05:00.835Z,18.16
2022-08-03T05:07:35.674Z,18.23
2022-08-03T05:10:06.866Z,18.33
2022-08-03T05:12:43.542Z,18.41
2022-08-03T05:15:15.735Z,18.48
2022-08-03T05:17:43.558Z,18.57
2022-08-03T05:20:12.855Z,18.67
2022-08-03T05:22:41.211Z,18.78
2022-08-03T05:25:09.396Z,18.79
2022-08-03T05:27:45.355Z,18.77
2022-08-03T05:30:31.532Z,18.71
2022-08-03T05:33:03.724Z,18.72
2022-08-03T05:35:55.819Z,18.73
2022-08-03T05:38:24.092Z,18.80
2022-08-03T05:41:23.452Z,18.88
2022-08-03T05:43:45.507Z,18.98
2022-08-03T05:46:14.647Z,19.05
2022-08-03T05:48:42.629Z,19.13
2022-08-03T05:51:12.495Z,19.20
2022-08-03T05:53:41.695Z,19.28
2022-08-03T05:56:13.563Z,19.35
2022-08-03T05:58:45.142Z,19.52
2022-08-03T06:01:14.804Z,19.71
2022-08-03T06:03:42.793Z,19.82
2022-08-03T06:06:11.752Z,19.96
2022-08-03T06:08:39.704Z,19.95
2022-08-03T06:11:07.730Z,20.02
2022-08-03T06:13:35.607Z,20.07
2022-08-03T06:16:03.992Z,20.21
2022-08-03T06:18:33.345Z,20.31
2022-08-03T06:21:14.582Z,20.43
2022-08-03T06:23:54.095Z,20.67
2022-08-03T06:26:27.855Z,20.89
2022-08-03T06:28:57.264Z,21.06
2022-08-03T06:31:32.860Z,21.19
2022-08-03T06:34:34.351Z,21.39
2022-08-03T06:36:58.509Z,21.71
2022-08-03T06:39:30.076Z,21.91
2022-08-03T06:41:58.097Z,22.13
2022-08-03T06:44:26.410Z,22.36
2022-08-03T06:46:54.227Z,22.57
2022-08-03T06:49:23.693Z,22.79
2022-08-03T06:52:04.224Z,22.98
2022-08-03T06:54:35.634Z,23.23
2022-08-03T06:57:03.767Z,23.52
2022-08-03T07:00:08.178Z,23.63
2022-08-03T07:02:20.386Z,24.05
2022-08-03T07:04:50.034Z,24.20
2022-08-03T07:07:19.459Z,24.47
2022-08-03T07:09:56.962Z,24.65
2022-08-03T07:12:26.384Z,24.83
2022-08-03T07:14:58.184Z,24.80
2022-08-03T07:17:30.829Z,25.02
2022-08-03T07:20:00.839Z,25.37
2022-08-03T07:22:29.437Z,25.60
2022-08-03T07:24:57.852Z,25.79
2022-08-03T07:27:28.509Z,26.00
2022-08-03T07:29:56.642Z,26.23
2022-08-03T07:32:25.285Z,26.55
2022-08-03T07:34:57.098Z,26.60
2022-08-03T07:37:29.622Z,26.55
2022-08-03T07:39:57.945Z,26.41
2022-08-03T07:42:25.798Z,26.87
2022-08-03T07:44:53.680Z,26.87
2022-08-03T07:47:22.539Z,26.93
2022-08-03T07:49:50.865Z,27.19
2022-08-03T07:52:36.567Z,27.47
2022-08-03T07:55:07.548Z,27.45
2022-08-03T07:57:36.026Z,27.50
2022-08-03T08:00:07.146Z,27.81
2022-08-03T08:02:35.000Z,28.29
2022-08-03T08:05:05.698Z,28.67
2022-08-03T08:07:35.508Z,28.75
2022-08-03T08:10:03.425Z,30.62
2022-08-03T08:12:32.619Z,32.30
2022-08-03T08:15:00.767Z,32.76
2022-08-03T08:17:29.062Z,35.13
2022-08-03T08:19:58.009Z,35.86
2022-08-03T08:22:30.542Z,36.81
2022-08-03T08:25:01.366Z,36.84
2022-08-03T08:28:30.317Z,38.55
2022-08-03T08:30:21.815Z,38.74
2022-08-03T08:32:50.182Z,39.58
2022-08-03T08:35:19.777Z,40.46
2022-08-03T08:37:50.996Z,41.08
2022-08-03T08:40:22.215Z,41.83
2022-08-03T08:42:59.043Z,43.00
2022-08-03T08:45:28.743Z,42.03
2022-08-03T08:48:03.525Z,43.40
2022-08-03T08:50:35.204Z,44.74
2022-08-03T08:53:04.331Z,45.34
2022-08-03T08:55:57.817Z,45.11
2022-08-03T08:58:23.540Z,46.44
2022-08-03T09:00:52.988Z,46.36
2022-08-03T09:03:29.406Z,47.14
2022-08-03T09:06:01.156Z,46.94
2022-08-03T09:08:30.269Z,47.47
2022-08-03T09:10:58.199Z,46.28
2022-08-03T09:13:26.393Z,47.01
2022-08-03T09:16:17.124Z,45.51
2022-08-03T09:18:47.360Z,44.69
2022-08-03T09:21:31.685Z,46.06
2022-08-03T09:24:03.773Z,43.29
2022-08-03T09:26:35.761Z,45.94
2022-08-03T09:29:11.197Z,46.29
2022-08-03T09:31:46.719Z,44.98
2022-08-03T09:34:17.864Z,46.78
2022-08-03T09:36:47.076Z,45.69
2022-08-03T09:39:16.632Z,45.77
2022-08-03T09:41:46.022Z,45.59
2022-08-03T09:44:24.251Z,45.18
2022-08-03T09:46:55.126Z,44.30
2022-08-03T09:49:23.574Z,45.11
2022-08-03T09:52:33.932Z,45.70
2022-08-03T09:54:39.840Z,43.77
2022-08-03T09:57:07.826Z,43.51
2022-08-03T09:59:39.125Z,43.13
2022-08-03T10:02:22.940Z,42.94
2022-08-03T10:04:53.007Z,44.04
2022-08-03T10:07:22.457Z,43.39
2022-08-03T10:10:30.065Z,42.31
2022-08-03T10:12:48.790Z,41.54
2022-08-03T10:16:22.644Z,42.47
2022-08-03T10:18:06.647Z,42.21
2022-08-03T10:20:38.860Z,42.17
2022-08-03T10:23:09.142Z,41.04
2022-08-03T10:25:40.865Z,41.73
2022-08-03T10:28:10.815Z,42.69
2022-08-03T10:30:42.033Z,42.63
2022-08-03T10:33:50.075Z,43.20
2022-08-03T10:36:08.387Z,43.62
2022-08-03T10:38:39.775Z,43.15
2022-08-03T10:41:09.286Z,43.53
2022-08-03T10:43:57.671Z,42.64
2022-08-03T10:46:27.512Z,43.05
2022-08-03T10:48:58.183Z,42.71
2022-08-03T10:51:31.917Z,42.14
2022-08-03T10:54:02.192Z,42.38
2022-08-03T10:57:06.330Z,42.74
2022-08-03T11:00:04.147Z,43.84
2022-08-03T11:03:08.928Z,44.88
2022-08-03T11:05:43.531Z,45.10
2022-08-03T11:08:26.466Z,45.22
2022-08-03T11:10:55.986Z,44.38
2022-08-03T11:13:26.263Z,44.02
2022-08-03T11:16:00.160Z,43.00
2022-08-03T11:18:31.895Z,41.52
2022-08-03T11:21:01.844Z,41.51
2022-08-03T11:24:03.264Z,40.55
2022-08-03T11:26:34.193Z,41.22
2022-08-03T11:29:29.301Z,41.63
2022-08-03T11:31:57.413Z,42.53
2022-08-03T11:34:25.597Z,42.70
2022-08-03T11:37:27.220Z,42.67
2022-08-03T11:39:58.100Z,42.09
2022-08-03T11:42:57.297Z,41.52
2022-08-03T11:45:28.208Z,41.17
2022-08-03T11:51:01.122Z,39.66
2022-08-03T11:53:48.297Z,37.86
2022-08-03T11:56:29.860Z,37.96
2022-08-03T11:59:18.149Z,38.77
2022-08-03T12:01:54.626Z,38.19
2022-08-03T12:04:24.900Z,38.20
2022-08-03T12:07:09.636Z,38.65
2022-08-03T12:09:53.652Z,39.25
2022-08-03T12:12:31.085Z,39.79
2022-08-03T12:15:06.857Z,39.87
2022-08-03T12:17:43.790Z,39.58
2022-08-03T12:20:34.590Z,39.23
2022-08-03T12:23:07.853Z,39.37
2022-08-03T12:25:40.055Z,40.85
2022-08-03T12:28:28.206Z,40.46
2022-08-03T12:31:03.940Z,39.97
2022-08-03T12:33:31.938Z,39.61
2022-08-03T12:36:08.830Z,38.68
2022-08-03T12:38:39.534Z,38.78
2022-08-03T12:41:13.522Z,39.17
2022-08-03T12:43:49.313Z,38.81
2022-08-03T12:46:18.487Z,39.09
2022-08-03T12:49:04.949Z,39.50
2022-08-03T12:51:34.295Z,40.03
2022-08-03T12:54:03.261Z,39.92
2022-08-03T12:56:32.487Z,39.58
2022-08-03T12:59:01.908Z,40.05
2022-08-03T13:01:54.872Z,40.42
2022-08-03T13:04:31.687Z,40.77
2022-08-03T13:07:03.343Z,41.60
2022-08-03T13:09:33.328Z,42.77
2022-08-03T13:12:11.152Z,43.90
2022-08-03T13:14:39.532Z,44.90
2022-08-03T13:17:08.039Z,46.19
2022-08-03T13:19:36.529Z,47.22
2022-08-03T13:22:12.791Z,47.41
2022-08-03T13:24:41.324Z,47.26
2022-08-03T13:28:01.200Z,45.57
2022-08-03T13:29:59.675Z,44.49
2022-08-03T13:32:27.618Z,43.51
2022-08-03T13:34:55.432Z,42.80
2022-08-03T13:37:23.575Z,43.32
2022-08-03T13:39:58.893Z,43.85
2022-08-03T13:42:31.642Z,42.82
2022-08-03T13:44:59.858Z,41.67
2022-08-03T13:47:28.102Z,41.34
2022-08-03T13:50:01.646Z,40.57
2022-08-03T13:52:31.642Z,40.16
2022-08-03T13:55:00.218Z,39.39
2022-08-03T13:58:04.252Z,38.19
2022-08-03T14:00:27.680Z,37.95
2022-08-03T14:03:09.499Z,38.15
2022-08-03T14:05:41.041Z,38.22
2022-08-03T14:08:09.402Z,38.40
2022-08-03T14:10:39.462Z,38.56
2022-08-03T14:13:07.919Z,37.77
2022-08-03T14:15:37.682Z,37.06
2022-08-03T14:18:12.820Z,37.22
2022-08-03T14:20:48.616Z,36.95
2022-08-03T14:23:20.048Z,37.24
2022-08-03T14:25:51.447Z,37.43
2022-08-03T14:28:23.711Z,37.47
2022-08-03T14:30:54.064Z,37.46
2022-08-03T14:33:25.397Z,36.73
2022-08-03T14:35:53.865Z,36.93
2022-08-03T14:38:23.528Z,36.57
2022-08-03T14:40:53.178Z,36.87
2022-08-03T14:43:21.385Z,36.65
2022-08-03T14:45:52.322Z,36.47
2022-08-03T14:50:34.818Z,36.21
2022-08-03T14:51:10.250Z,36.96
2022-08-03T14:53:38.418Z,38.52
2022-08-03T14:56:10.342Z,40.64
2022-08-03T14:58:39.091Z,42.34
2022-08-03T15:02:02.364Z,42.84
2022-08-03T15:03:57.984Z,42.25
2022-08-03T15:06:25.868Z,41.14
2022-08-03T15:09:22.593Z,40.30
2022-08-03T15:11:42.258Z,38.70
2022-08-03T15:14:10.075Z,39.13
2022-08-03T15:16:41.339Z,38.93
2022-08-03T15:20:01.028Z,39.58
2022-08-03T15:22:01.052Z,40.22
2022-08-03T15:24:30.251Z,41.13
2022-08-03T15:26:58.085Z,41.43
2022-08-03T15:30:08.920Z,41.01
2022-08-03T15:32:14.136Z,39.79
2022-08-03T15:34:50.468Z,38.53
2022-08-03T15:37:19.277Z,37.52
2022-08-03T15:39:59.203Z,36.74
2022-08-03T15:42:29.115Z,36.55
2022-08-03T15:44:57.037Z,36.18
2022-08-03T15:47:25.171Z,35.59
2022-08-03T15:49:54.410Z,35.24
2022-08-03T15:52:22.312Z,34.96
2022-08-03T15:54:50.330Z,34.73
2022-08-03T15:57:18.697Z,34.37
2022-08-03T15:59:46.894Z,34.36
2022-08-03T16:02:14.849Z,34.42
2022-08-03T16:04:42.722Z,33.89
2022-08-03T16:07:12.892Z,33.79
2022-08-03T16:09:43.470Z,33.85
2022-08-03T16:12:16.416Z,33.88
2022-08-03T16:14:52.455Z,33.83
2022-08-03T16:17:21.935Z,33.93
2022-08-03T16:19:50.770Z,34.06
2022-08-03T16:22:23.047Z,34.11
2022-08-03T16:24:55.858Z,34.16
2022-08-03T16:28:00.340Z,34.12
2022-08-03T16:30:26.005Z,33.93
2022-08-03T16:33:00.174Z,33.95
2022-08-03T16:35:29.657Z,33.93
2022-08-03T16:38:07.832Z,33.94
2022-08-03T16:40:41.006Z,33.60
2022-08-03T16:43:27.065Z,33.46
2022-08-03T16:45:58.509Z,33.50
2022-08-03T16:48:36.587Z,33.41
2022-08-03T16:51:06.578Z,33.31
2022-08-03T16:54:05.366Z,33.27
2022-08-03T16:56:33.890Z,33.08
2022-08-03T16:59:05.640Z,33.08
2022-08-03T17:01:37.735Z,32.95
2022-08-03T17:04:06.066Z,32.85
2022-08-03T17:06:37.948Z,32.76
2022-08-03T17:09:15.874Z,32.57
2022-08-03T17:11:48.571Z,32.50
2022-08-03T17:14:21.860Z,32.39
2022-08-03T17:16:53.833Z,32.30
2022-08-03T17:19:25.492Z,32.17
2022-08-03T17:22:01.658Z,32.08
2022-08-03T17:24:41.441Z,32.02
2022-08-03T17:28:41.968Z,31.96
2022-08-03T17:30:09.476Z,31.85
2022-08-03T17:32:42.290Z,31.74
2022-08-03T17:35:12.277Z,31.62
2022-08-03T17:37:58.260Z,31.55
2022-08-03T17:40:33.094Z,31.47
2022-08-03T17:44:13.314Z,31.38
2022-08-03T17:45:52.837Z,31.28
2022-08-03T17:48:24.947Z,31.20
2022-08-03T17:50:56.681Z,31.13
2022-08-03T17:53:29.687Z,31.02
2022-08-03T17:56:45.170Z,30.92
2022-08-03T18:02:29.865Z,30.69
2022-08-03T18:05:16.603Z,30.57
2022-08-03T18:07:47.743Z,30.47
2022-08-03T18:10:22.203Z,30.35
2022-08-03T18:12:53.994Z,30.27
2022-08-03T18:15:28.633Z,30.17
2022-08-03T18:18:02.100Z,30.10
2022-08-03T18:20:41.076Z,30.00
2022-08-03T18:23:24.866Z,29.88
2022-08-03T18:26:00.199Z,29.76
2022-08-03T18:28:32.085Z,29.67
2022-08-03T18:31:05.571Z,29.54
2022-08-03T18:34:17.624Z,29.43
2022-08-03T18:36:29.690Z,29.32
2022-08-03T18:39:00.206Z,29.18
2022-08-03T18:41:32.246Z,29.09
2022-08-03T18:44:37.633Z,28.95
2022-08-03T18:47:24.017Z,28.84
2022-08-03T18:50:01.491Z,28.75
2022-08-03T18:52:37.305Z,28.64
2022-08-03T18:55:20.845Z,28.57
2022-08-03T18:58:00.995Z,28.51
2022-08-03T19:00:54.240Z,28.44
2022-08-03T19:03:25.695Z,28.38
2022-08-03T19:06:19.189Z,28.29
2022-08-03T19:08:53.252Z,28.21
2022-08-03T19:11:28.155Z,28.13
2022-08-03T19:14:00.903Z,28.03
2022-08-03T19:16:39.333Z,27.91
2022-08-03T19:19:14.485Z,27.79
2022-08-03T19:21:42.708Z,27.67
2022-08-03T19:24:10.646Z,27.54
2022-08-03T19:26:41.409Z,27.46
2022-08-03T19:29:15.018Z,27.39
2022-08-03T19:31:59.444Z,27.31
2022-08-03T19:34:29.311Z,27.23
2022-08-03T19:36:58.389Z,27.15
2022-08-03T19:39:27.026Z,27.10
2022-08-03T19:42:08.239Z,27.04
2022-08-03T19:44:42.038Z,27.09
2022-08-03T19:47:16.899Z,27.11
2022-08-03T19:50:04.826Z,27.15
2022-08-03T19:55:48.834Z,27.23
2022-08-03T19:58:28.355Z,27.25
2022-08-03T20:00:57.084Z,27.23
2022-08-03T20:03:27.947Z,27.16
2022-08-03T20:06:16.984Z,27.09
2022-08-03T20:08:45.194Z,27.07
2022-08-03T20:11:18.307Z,27.06
2022-08-03T20:13:49.861Z,27.02
2022-08-03T20:16:17.838Z,27.00
2022-08-03T20:18:45.782Z,26.97
2022-08-03T20:21:15.806Z,26.96
2022-08-03T20:24:03.188Z,26.90
2022-08-03T20:26:35.293Z,26.88
2022-08-03T20:29:09.157Z,26.88
2022-08-03T20:31:38.827Z,26.81
2022-08-03T20:34:07.323Z,26.76
2022-08-03T20:36:37.218Z,26.71
2022-08-03T20:39:07.625Z,26.64
2022-08-03T20:41:37.453Z,26.58
2022-08-03T20:44:05.747Z,26.53
2022-08-03T20:46:50.191Z,26.45
2022-08-03T20:49:23.603Z,26.37
2022-08-03T20:51:53.600Z,26.30
2022-08-03T20:54:31.259Z,26.22
2022-08-03T20:57:04.293Z,26.17
2022-08-03T20:59:50.287Z,26.14
2022-08-03T21:02:29.753Z,26.11
2022-08-03T21:05:03.443Z,26.08
2022-08-03T21:08:03.915Z,26.05
2022-08-03T21:10:31.338Z,25.99
2022-08-03T21:13:05.488Z,30.81
2022-08-03T21:13:16.204Z,25.91
2022-08-03T21:16:03.137Z,25.84
2022-08-03T21:18:43.545Z,25.74
2022-08-03T21:21:14.963Z,25.68
2022-08-03T21:23:49.175Z,25.65
2022-08-03T21:26:19.086Z,25.61
2022-08-03T21:28:49.670Z,25.57
2022-08-03T21:31:25.159Z,25.57
2022-08-03T21:33:55.146Z,25.54
2022-08-03T21:36:23.191Z,25.52
2022-08-03T21:38:56.597Z,25.49
2022-08-03T21:41:26.085Z,25.48
2022-08-03T21:43:55.651Z,25.52
2022-08-03T21:46:24.840Z,25.55
2022-08-03T21:48:56.777Z,25.57
2022-08-03T21:51:44.752Z,25.56
2022-08-03T21:54:14.436Z,25.52
2022-08-03T21:56:44.183Z,25.50
2022-08-03T21:59:18.225Z,25.44
2022-08-03T22:01:51.423Z,25.38
2022-08-03T22:04:50.975Z,25.33
2022-08-03T22:07:12.150Z,25.28
2022-08-03T22:09:51.321Z,25.26
2022-08-03T22:12:22.864Z,25.21
2022-08-03T22:15:00.401Z,25.16
2022-08-03T22:17:55.681Z,25.12
2022-08-03T22:20:19.898Z,25.12
2022-08-03T22:22:55.344Z,25.09
2022-08-03T22:25:30.035Z,24.99
2022-08-03T22:27:59.998Z,24.95
2022-08-03T22:30:29.619Z,24.91
2022-08-03T22:32:58.936Z,24.91
2022-08-03T22:35:28.106Z,24.90
2022-08-03T22:37:59.462Z,24.84
2022-08-03T22:40:27.834Z,24.80
2022-08-03T22:42:56.055Z,24.73
2022-08-03T22:46:07.617Z,24.68
2022-08-03T22:48:17.823Z,24.65
2022-08-03T22:50:47.124Z,24.52
2022-08-03T22:53:44.652Z,24.45
2022-08-03T22:56:13.198Z,24.31
2022-08-03T22:58:41.136Z,24.24
2022-08-03T23:01:12.518Z,24.14
2022-08-03T23:03:59.782Z,24.06
2022-08-03T23:06:34.421Z,24.00
2022-08-03T23:09:04.385Z,23.97
2022-08-03T23:11:36.564Z,23.91
2022-08-03T23:14:11.458Z,23.91
2022-08-03T23:16:40.947Z,23.90
2022-08-03T23:19:17.042Z,23.91
2022-08-03T23:22:02.351Z,23.87
2022-08-03T23:24:34.566Z,23.78
2022-08-03T23:27:04.359Z,23.76
2022-08-03T23:29:32.614Z,23.71
2022-08-03T23:32:02.751Z,23.65
2022-08-03T23:34:50.324Z,23.57
2022-08-03T23:37:19.490Z,23.51
2022-08-03T23:39:49.285Z,23.48
2022-08-03T23:42:19.293Z,23.46
2022-08-03T23:44:48.172Z,23.40
2022-08-03T23:47:16.249Z,23.43
2022-08-03T23:49:45.770Z,23.39
2022-08-03T23:52:20.158Z,23.35
2022-08-03T23:55:06.026Z,23.35
2022-08-03T23:57:44.106Z,23.34
